This is the latest recevied weather packets stored in our database for station/object KI5MKI. If no packets are shown the sender has not sent any weather packets the latest 1 day(s).
| Time | Temp. | Humidity | Pressure | Rain* | Wind** | Luminosity | Snow |
|---|---|---|---|---|---|---|---|
| 1778084606 | 12.78° C | 85% | 1016.7 hPa | 0 mm | - | 31 W/m² | - |
| 1778083698 | 13.33° C | 83% | 1015.5 hPa | 0 mm | - | 87 W/m² | - |
| 1778080451 | 12.78° C | 83% | 1014.1 hPa | 0 mm | - | 183 W/m² | - |
| 1778080149 | 12.78° C | 82% | 1014.9 hPa | 0 mm | - | 92 W/m² | - |
| 1778077121 | 12.22° C | 86% | 1013.7 hPa | 0 mm | - | 83 W/m² | - |
| 1778076213 | 11.67° C | 87% | 1013.8 hPa | 0 mm | - | 66 W/m² | - |
| 1778075910 | 11.67° C | 88% | 1013.7 hPa | 0 mm | - | 63 W/m² | - |
| 1778075303 | 11.67° C | 90% | 1013.8 hPa | 0 mm | - | 61 W/m² | - |
| 1778074697 | 11.11° C | 91% | 1013.5 hPa | 0 mm | - | 43 W/m² | - |
| 1778072878 | 11.11° C | 90% | 1013.4 hPa | 0 mm | - | 40 W/m² | - |
| 1778072273 | 11.11° C | 89% | 1013.6 hPa | 0 mm | - | 29 W/m² | - |
| 1778071669 | 11.11° C | 89% | 1013.1 hPa | 0 mm | - | 21 W/m² | - |
| 1778071366 | 11.67° C | 89% | 1013.1 hPa | 0 mm | - | 24 W/m² | - |
| 1778070762 | 11.67° C | 87% | 1013 hPa | 0 mm | - | 22 W/m² | - |
| 1778069550 | 11.67° C | 83% | 1012.8 hPa | 0 mm | - | 11 W/m² | - |
| 1778068643 | 12.22° C | 81% | 1012.4 hPa | 0 mm | - | 7 W/m² | - |
| 1778067434 | 12.22° C | 80% | 1012 hPa | 0 mm | - | 1 W/m² | - |
| 1778065315 | 12.78° C | 79% | 1011.4 hPa | 0 mm | - | 0 W/m² | - |
| 1778064708 | 12.78° C | 78% | 1011.3 hPa | 0 mm | - | 0 W/m² | - |
| 1778062893 | 12.78° C | 78% | 1010.8 hPa | 0 mm | - | 0 W/m² | - |
| 1778062286 | 13.33° C | 77% | 1011 hPa | 0 mm | - | 0 W/m² | - |
| 1778061985 | 13.33° C | 77% | 1010.9 hPa | 0 mm | - | 0 W/m² | - |
| 1778061381 | 13.33° C | 76% | 1010.8 hPa | 0 mm | - | 0 W/m² | - |
| 1778061077 | 13.33° C | 76% | 1010.8 hPa | 0 mm | - | 0 W/m² | - |
| 1778059262 | 13.89° C | 77% | 1010.5 hPa | 0 mm | - | 0 W/m² | - |
* Rain latest hour (hover to see other rain measurements)
** Current wind speed in m/s (hover to see current wind gust speed)